SWA2305 KMDW-KSAN
Flight info
| Callsign | SWA2305 |
|---|---|
| Flight time | 3h 58m |
| Altitude | 36000 |
| Route | DCT PEKUE DCT PIPPN DCT ELYNA DCT STJ DCT LAA DCT INW DCT DRK J96 PKE LUCKI1 |
| Aircraft | B738/M-SDE2E3FGHIRWXY/LB1 |
Departure
| Time | 2026-04-23 14:08 |
|---|---|
| Airport | Chicago Midway International Airport (KMDW) |
Arrival
| Time | 2026-04-23 18:07 |
|---|---|
| Airport | San Diego International Airport (KSAN) |
| Time | Latitude | Longitude | Altitude | Speed | Heading |
|---|---|---|---|---|---|
| 2026-04-23 13:47 | 41.78706 | -87.74598 | 619 ft | 0 kts | 135° |
| 2026-04-23 13:58 | 41.78709 | -87.74602 | 619 ft | 3 kts | 141° |
| 2026-04-23 13:58 | 41.78712 | -87.74608 | 619 ft | 4 kts | 181° |
| 2026-04-23 13:59 | 41.78726 | -87.74621 | 639 ft | 4 kts | 134° |
| 2026-04-23 13:59 | 41.78744 | -87.74647 | 622 ft | 4 kts | 135° |
| 2026-04-23 13:59 | 41.78760 | -87.74674 | 625 ft | 4 kts | 107° |
| 2026-04-23 13:59 | 41.78759 | -87.74705 | 630 ft | 4 kts | 57° |
| 2026-04-23 14:00 | 41.78751 | -87.74718 | 628 ft | 1 kts | 44° |
| 2026-04-23 14:00 | 41.78748 | -87.74722 | 630 ft | 0 kts | 44° |
| 2026-04-23 14:04 | 41.78760 | -87.74707 | 630 ft | 6 kts | 44° |
| 2026-04-23 14:04 | 41.78800 | -87.74656 | 621 ft | 9 kts | 44° |
| 2026-04-23 14:05 | 41.78846 | -87.74598 | 622 ft | 9 kts | 44° |
| 2026-04-23 14:05 | 41.78896 | -87.74536 | 618 ft | 10 kts | 43° |
| 2026-04-23 14:05 | 41.78954 | -87.74462 | 618 ft | 13 kts | 44° |
| 2026-04-23 14:05 | 41.79026 | -87.74368 | 616 ft | 17 kts | 43° |
| 2026-04-23 14:06 | 41.79112 | -87.74265 | 617 ft | 12 kts | 32° |
| 2026-04-23 14:06 | 41.79181 | -87.74299 | 612 ft | 10 kts | 310° |
| 2026-04-23 14:06 | 41.79176 | -87.74340 | 624 ft | 0 kts | 222° |
| 2026-04-23 14:07 | 41.79175 | -87.74342 | 618 ft | 2 kts | 222° |
| 2026-04-23 14:07 | 41.79002 | -87.74559 | 623 ft | 72 kts | 223° |
| 2026-04-23 14:08 | 41.78461 | -87.75243 | 634 ft | 139 kts | 223° |
| 2026-04-23 14:08 | 41.77657 | -87.76259 | 948 ft | 168 kts | 223° |
| 2026-04-23 14:08 | 41.76774 | -87.77404 | 1644 ft | 180 kts | 223° |
| 2026-04-23 14:08 | 41.75841 | -87.78602 | 2403 ft | 189 kts | 224° |
| 2026-04-23 14:09 | 41.75204 | -87.79414 | 2756 ft | 196 kts | 223° |
| 2026-04-23 14:09 | 41.73791 | -87.81185 | 2977 ft | 226 kts | 223° |
| 2026-04-23 14:09 | 41.72632 | -87.82613 | 2974 ft | 225 kts | 223° |
| 2026-04-23 14:09 | 41.71601 | -87.84187 | 2972 ft | 229 kts | 245° |
| 2026-04-23 14:10 | 41.71428 | -87.86287 | 2998 ft | 232 kts | 275° |
| 2026-04-23 14:10 | 41.71581 | -87.87736 | 3038 ft | 244 kts | 275° |
| 2026-04-23 14:10 | 41.71820 | -87.90052 | 3613 ft | 254 kts | 275° |
| 2026-04-23 14:10 | 41.72063 | -87.92422 | 4410 ft | 259 kts | 275° |
| 2026-04-23 14:11 | 41.72300 | -87.94836 | 5160 ft | 264 kts | 274° |
| 2026-04-23 14:11 | 41.72534 | -87.97285 | 5923 ft | 267 kts | 274° |
| 2026-04-23 14:11 | 41.72767 | -87.99786 | 6620 ft | 272 kts | 273° |
| 2026-04-23 14:11 | 41.72999 | -88.02325 | 7314 ft | 276 kts | 273° |
| 2026-04-23 14:12 | 41.73307 | -88.05732 | 8244 ft | 281 kts | 273° |
| 2026-04-23 14:12 | 41.73464 | -88.07495 | 8687 ft | 284 kts | 274° |
| 2026-04-23 14:12 | 41.73700 | -88.10150 | 9336 ft | 290 kts | 274° |
| 2026-04-23 14:12 | 41.73939 | -88.12850 | 10024 ft | 294 kts | 274° |
| 2026-04-23 14:13 | 41.74182 | -88.15619 | 10412 ft | 309 kts | 274° |
| 2026-04-23 14:13 | 41.74436 | -88.18535 | 10830 ft | 320 kts | 274° |
| 2026-04-23 14:13 | 41.74693 | -88.21473 | 11448 ft | 323 kts | 274° |
| 2026-04-23 14:13 | 41.74954 | -88.24472 | 12152 ft | 325 kts | 274° |
| 2026-04-23 14:14 | 41.75217 | -88.27491 | 12838 ft | 328 kts | 274° |
| 2026-04-23 14:14 | 41.75480 | -88.30534 | 13511 ft | 331 kts | 274° |
| 2026-04-23 14:14 | 41.75745 | -88.33609 | 14152 ft | 334 kts | 275° |
| 2026-04-23 14:14 | 41.76011 | -88.36708 | 14771 ft | 336 kts | 275° |
| 2026-04-23 14:15 | 41.76277 | -88.39827 | 15408 ft | 337 kts | 275° |
| 2026-04-23 14:15 | 41.76544 | -88.42957 | 16022 ft | 339 kts | 275° |
| 2026-04-23 14:15 | 41.76812 | -88.46111 | 16644 ft | 341 kts | 275° |
| 2026-04-23 14:15 | 41.77081 | -88.49287 | 17262 ft | 344 kts | 275° |
| 2026-04-23 14:16 | 41.77350 | -88.52478 | 17848 ft | 346 kts | 275° |
| 2026-04-23 14:16 | 41.77621 | -88.55697 | 18464 ft | 348 kts | 275° |
| 2026-04-23 14:16 | 41.77892 | -88.58935 | 18949 ft | 351 kts | 275° |
| 2026-04-23 14:16 | 41.78162 | -88.62163 | 19455 ft | 353 kts | 275° |
| 2026-04-23 14:17 | 41.78435 | -88.65449 | 19978 ft | 356 kts | 275° |
| 2026-04-23 14:17 | 41.78710 | -88.68764 | 20446 ft | 359 kts | 275° |
| 2026-04-23 14:17 | 41.78987 | -88.72099 | 20976 ft | 361 kts | 275° |
| 2026-04-23 14:17 | 41.79264 | -88.75466 | 21423 ft | 365 kts | 275° |
| 2026-04-23 14:18 | 41.79534 | -88.78853 | 21910 ft | 367 kts | 273° |
| 2026-04-23 14:18 | 41.79538 | -88.82276 | 22393 ft | 368 kts | 262° |
| 2026-04-23 14:18 | 41.79155 | -88.85662 | 22892 ft | 369 kts | 259° |
| 2026-04-23 14:18 | 41.78696 | -88.89066 | 23331 ft | 372 kts | 258° |
| 2026-04-23 14:19 | 41.78222 | -88.92481 | 23739 ft | 374 kts | 258° |
| 2026-04-23 14:19 | 41.77745 | -88.95922 | 24153 ft | 376 kts | 258° |
| 2026-04-23 14:19 | 41.77280 | -88.99325 | 24585 ft | 376 kts | 258° |
| 2026-04-23 14:19 | 41.76813 | -89.02778 | 25007 ft | 377 kts | 258° |
| 2026-04-23 14:20 | 41.76348 | -89.06243 | 25415 ft | 378 kts | 258° |
| 2026-04-23 14:20 | 41.75882 | -89.09725 | 25813 ft | 379 kts | 258° |
| 2026-04-23 14:20 | 41.75416 | -89.13212 | 26195 ft | 381 kts | 259° |
| 2026-04-23 14:20 | 41.74949 | -89.16708 | 26578 ft | 382 kts | 259° |
| 2026-04-23 14:21 | 41.74479 | -89.20215 | 26951 ft | 383 kts | 259° |
| 2026-04-23 14:21 | 41.74004 | -89.23747 | 27317 ft | 385 kts | 258° |
| 2026-04-23 14:21 | 41.73528 | -89.27282 | 27677 ft | 386 kts | 259° |
| 2026-04-23 14:21 | 41.73050 | -89.30827 | 28030 ft | 388 kts | 258° |
| 2026-04-23 14:22 | 41.72569 | -89.34385 | 28366 ft | 389 kts | 259° |
| 2026-04-23 14:22 | 41.72084 | -89.37967 | 28706 ft | 391 kts | 258° |
| 2026-04-23 14:22 | 41.71603 | -89.41505 | 29042 ft | 392 kts | 258° |
| 2026-04-23 14:22 | 41.71107 | -89.45142 | 29409 ft | 393 kts | 259° |
| 2026-04-23 14:23 | 41.70619 | -89.48712 | 29597 ft | 398 kts | 258° |
| 2026-04-23 14:23 | 41.70115 | -89.52394 | 29647 ft | 405 kts | 258° |
| 2026-04-23 14:23 | 41.69076 | -89.59953 | 29790 ft | 419 kts | 258° |
| 2026-04-23 14:24 | 41.68001 | -89.67742 | 29917 ft | 431 kts | 258° |
| 2026-04-23 14:24 | 41.66520 | -89.75561 | 30020 ft | 441 kts | 247° |
| 2026-04-23 14:25 | 41.65312 | -89.79351 | 30144 ft | 444 kts | 246° |
| 2026-04-23 14:25 | 41.64070 | -89.83140 | 30354 ft | 445 kts | 246° |
| 2026-04-23 14:25 | 41.62825 | -89.86918 | 30674 ft | 442 kts | 246° |
| 2026-04-23 14:25 | 41.61591 | -89.90675 | 31000 ft | 440 kts | 246° |
| 2026-04-23 14:26 | 41.60366 | -89.94427 | 31230 ft | 440 kts | 246° |
| 2026-04-23 14:26 | 41.59145 | -89.98186 | 31448 ft | 440 kts | 246° |
| 2026-04-23 14:26 | 41.57929 | -90.01938 | 31712 ft | 440 kts | 246° |
| 2026-04-23 14:26 | 41.56717 | -90.05684 | 31981 ft | 439 kts | 246° |
| 2026-04-23 14:27 | 41.55507 | -90.09422 | 32253 ft | 438 kts | 246° |
| 2026-04-23 14:27 | 41.54314 | -90.13105 | 32499 ft | 437 kts | 246° |
| 2026-04-23 14:27 | 41.53107 | -90.16827 | 32742 ft | 436 kts | 246° |
| 2026-04-23 14:27 | 41.51901 | -90.20538 | 32987 ft | 435 kts | 246° |
| 2026-04-23 14:28 | 41.50694 | -90.24248 | 33220 ft | 435 kts | 246° |
| 2026-04-23 14:28 | 41.49489 | -90.27946 | 33458 ft | 434 kts | 246° |
| 2026-04-23 14:28 | 41.48284 | -90.31638 | 33682 ft | 434 kts | 246° |
| 2026-04-23 14:28 | 41.47079 | -90.35328 | 33914 ft | 433 kts | 246° |
| 2026-04-23 14:29 | 41.45876 | -90.39002 | 34116 ft | 432 kts | 246° |
| 2026-04-23 14:29 | 41.44675 | -90.42669 | 34327 ft | 431 kts | 246° |
| 2026-04-23 14:29 | 41.43475 | -90.46326 | 34531 ft | 430 kts | 246° |
| 2026-04-23 14:29 | 41.42277 | -90.49972 | 34736 ft | 429 kts | 246° |
| 2026-04-23 14:30 | 41.41077 | -90.53620 | 34934 ft | 428 kts | 246° |
| 2026-04-23 14:30 | 41.39900 | -90.57192 | 35183 ft | 425 kts | 246° |
| 2026-04-23 14:30 | 41.38700 | -90.60832 | 35461 ft | 422 kts | 246° |
| 2026-04-23 14:30 | 41.37519 | -90.64407 | 35682 ft | 420 kts | 246° |
| 2026-04-23 14:31 | 41.36342 | -90.67965 | 35836 ft | 420 kts | 246° |
| 2026-04-23 14:31 | 41.35164 | -90.71524 | 35889 ft | 421 kts | 246° |
| 2026-04-23 14:31 | 41.32809 | -90.78623 | 35905 ft | 422 kts | 246° |
| 2026-04-23 14:32 | 41.30433 | -90.85766 | 35896 ft | 421 kts | 246° |
| 2026-04-23 14:32 | 41.28060 | -90.92881 | 35896 ft | 420 kts | 246° |
| 2026-04-23 14:33 | 41.25702 | -90.99934 | 35896 ft | 419 kts | 246° |
| 2026-04-23 14:33 | 41.23330 | -91.07010 | 35895 ft | 419 kts | 246° |
| 2026-04-23 14:34 | 41.20957 | -91.14074 | 35894 ft | 418 kts | 246° |
| 2026-04-23 14:34 | 41.18581 | -91.21125 | 35894 ft | 418 kts | 246° |
| 2026-04-23 14:35 | 41.16200 | -91.28174 | 35890 ft | 418 kts | 246° |
| 2026-04-23 14:35 | 41.13832 | -91.35168 | 35885 ft | 418 kts | 246° |
| 2026-04-23 14:36 | 41.11437 | -91.42222 | 35887 ft | 419 kts | 245° |
| 2026-04-23 14:36 | 41.09034 | -91.49283 | 35887 ft | 420 kts | 246° |
| 2026-04-23 14:37 | 41.06625 | -91.56345 | 35889 ft | 420 kts | 245° |
| 2026-04-23 14:37 | 41.04222 | -91.63370 | 35888 ft | 421 kts | 245° |
| 2026-04-23 14:38 | 41.01793 | -91.70455 | 35883 ft | 422 kts | 245° |
| 2026-04-23 14:38 | 40.99361 | -91.77529 | 35855 ft | 422 kts | 245° |
| 2026-04-23 14:39 | 40.96924 | -91.84600 | 35854 ft | 422 kts | 245° |
| 2026-04-23 14:39 | 40.94482 | -91.91669 | 35854 ft | 423 kts | 245° |
| 2026-04-23 14:40 | 40.92050 | -91.98690 | 35850 ft | 423 kts | 245° |
| 2026-04-23 14:40 | 40.89582 | -92.05800 | 35854 ft | 423 kts | 245° |
| 2026-04-23 14:41 | 40.87139 | -92.12817 | 35854 ft | 423 kts | 245° |
| 2026-04-23 14:41 | 40.84675 | -92.19879 | 35846 ft | 423 kts | 245° |
| 2026-04-23 14:42 | 40.82206 | -92.26937 | 35852 ft | 424 kts | 245° |
| 2026-04-23 14:42 | 40.79729 | -92.33998 | 35845 ft | 424 kts | 245° |
| 2026-04-23 14:43 | 40.77249 | -92.41052 | 35847 ft | 424 kts | 245° |
| 2026-04-23 14:43 | 40.74762 | -92.48111 | 35842 ft | 425 kts | 245° |
| 2026-04-23 14:44 | 40.72266 | -92.55175 | 35837 ft | 425 kts | 245° |
| 2026-04-23 14:44 | 40.69764 | -92.62239 | 35842 ft | 425 kts | 245° |
| 2026-04-23 14:45 | 40.67256 | -92.69303 | 35839 ft | 426 kts | 245° |
| 2026-04-23 14:45 | 40.64738 | -92.76378 | 35840 ft | 427 kts | 245° |
| 2026-04-23 14:46 | 40.62215 | -92.83448 | 35846 ft | 427 kts | 245° |
| 2026-04-23 14:46 | 40.59686 | -92.90518 | 35842 ft | 427 kts | 245° |
| 2026-04-23 14:47 | 40.57151 | -92.97589 | 35838 ft | 427 kts | 245° |
| 2026-04-23 14:47 | 40.54614 | -93.04648 | 35835 ft | 427 kts | 245° |
| 2026-04-23 14:48 | 40.52071 | -93.11706 | 35826 ft | 427 kts | 245° |
| 2026-04-23 14:48 | 40.49509 | -93.18799 | 35821 ft | 426 kts | 245° |
| 2026-04-23 14:49 | 40.46965 | -93.25830 | 35813 ft | 426 kts | 245° |
| 2026-04-23 14:49 | 40.44452 | -93.32863 | 35803 ft | 425 kts | 247° |
| 2026-04-23 14:50 | 40.42294 | -93.40017 | 35807 ft | 424 kts | 249° |
| 2026-04-23 14:50 | 40.40204 | -93.47245 | 35798 ft | 423 kts | 249° |
| 2026-04-23 14:51 | 40.38097 | -93.54455 | 35798 ft | 423 kts | 248° |
| 2026-04-23 14:51 | 40.35974 | -93.61635 | 35802 ft | 422 kts | 248° |
| 2026-04-23 14:52 | 40.34188 | -93.67636 | 35791 ft | 421 kts | 248° |
| 2026-04-23 14:52 | 40.32055 | -93.74782 | 35798 ft | 421 kts | 248° |
| 2026-04-23 14:53 | 40.29917 | -93.81926 | 35794 ft | 421 kts | 248° |
| 2026-04-23 14:53 | 40.27776 | -93.89060 | 35792 ft | 421 kts | 247° |
| 2026-04-23 14:54 | 40.25632 | -93.96188 | 35784 ft | 421 kts | 247° |
| 2026-04-23 14:54 | 40.23484 | -94.03311 | 35779 ft | 421 kts | 247° |
| 2026-04-23 14:55 | 40.21331 | -94.10428 | 35781 ft | 421 kts | 247° |
| 2026-04-23 14:55 | 40.19172 | -94.17549 | 35778 ft | 421 kts | 247° |
| 2026-04-23 14:56 | 40.17011 | -94.24657 | 35779 ft | 421 kts | 246° |
| 2026-04-23 14:56 | 40.14844 | -94.31765 | 35773 ft | 421 kts | 246° |
| 2026-04-23 14:57 | 40.12675 | -94.38861 | 35771 ft | 420 kts | 246° |
| 2026-04-23 14:57 | 40.10504 | -94.45948 | 35774 ft | 420 kts | 246° |
| 2026-04-23 14:58 | 40.08330 | -94.53023 | 35763 ft | 419 kts | 246° |
| 2026-04-23 14:58 | 40.06156 | -94.60082 | 35767 ft | 419 kts | 246° |
| 2026-04-23 14:59 | 40.03979 | -94.67131 | 35769 ft | 419 kts | 246° |
| 2026-04-23 14:59 | 40.01798 | -94.74175 | 35759 ft | 418 kts | 246° |
| 2026-04-23 15:00 | 39.99615 | -94.81209 | 35766 ft | 418 kts | 246° |
| 2026-04-23 15:00 | 39.97432 | -94.88225 | 35766 ft | 417 kts | 246° |
| 2026-04-23 15:01 | 39.95488 | -94.95359 | 35763 ft | 419 kts | 253° |
| 2026-04-23 15:01 | 39.94105 | -95.02745 | 35758 ft | 420 kts | 254° |
| 2026-04-23 15:02 | 39.92741 | -95.10082 | 35760 ft | 419 kts | 253° |
| 2026-04-23 15:02 | 39.91338 | -95.17507 | 35753 ft | 420 kts | 253° |
| 2026-04-23 15:03 | 39.89929 | -95.24880 | 35743 ft | 419 kts | 253° |
| 2026-04-23 15:03 | 39.88514 | -95.32237 | 35734 ft | 419 kts | 253° |
| 2026-04-23 15:04 | 39.87095 | -95.39586 | 35728 ft | 418 kts | 253° |
| 2026-04-23 15:04 | 39.85673 | -95.46926 | 35726 ft | 418 kts | 253° |
| 2026-04-23 15:05 | 39.84255 | -95.54218 | 35717 ft | 418 kts | 253° |
| 2026-04-23 15:05 | 39.82815 | -95.61592 | 35717 ft | 417 kts | 253° |
| 2026-04-23 15:06 | 39.81384 | -95.68899 | 35718 ft | 417 kts | 253° |
| 2026-04-23 15:06 | 39.79955 | -95.76164 | 35702 ft | 417 kts | 253° |
| 2026-04-23 15:07 | 39.78513 | -95.83472 | 35701 ft | 417 kts | 253° |
| 2026-04-23 15:07 | 39.77056 | -95.90831 | 35686 ft | 418 kts | 253° |
| 2026-04-23 15:08 | 39.75605 | -95.98134 | 35684 ft | 418 kts | 253° |
| 2026-04-23 15:09 | 39.73418 | -96.09088 | 35687 ft | 418 kts | 253° |
| 2026-04-23 15:09 | 39.71952 | -96.16400 | 35687 ft | 418 kts | 252° |
| 2026-04-23 15:10 | 39.70731 | -96.22470 | 35685 ft | 418 kts | 252° |
| 2026-04-23 15:10 | 39.69009 | -96.30998 | 35679 ft | 418 kts | 252° |
| 2026-04-23 15:11 | 39.67530 | -96.38298 | 35679 ft | 418 kts | 252° |
| 2026-04-23 15:11 | 39.66047 | -96.45589 | 35679 ft | 418 kts | 252° |
| 2026-04-23 15:12 | 39.64559 | -96.52879 | 35675 ft | 418 kts | 252° |
| 2026-04-23 15:12 | 39.63068 | -96.60159 | 35673 ft | 418 kts | 252° |
| 2026-04-23 15:13 | 39.61572 | -96.67439 | 35663 ft | 418 kts | 252° |
| 2026-04-23 15:13 | 39.60073 | -96.74709 | 35662 ft | 417 kts | 252° |
| 2026-04-23 15:14 | 39.58572 | -96.81966 | 35655 ft | 417 kts | 252° |
| 2026-04-23 15:14 | 39.57066 | -96.89218 | 35647 ft | 416 kts | 252° |
| 2026-04-23 15:15 | 39.55558 | -96.96456 | 35640 ft | 416 kts | 252° |
| 2026-04-23 15:15 | 39.54047 | -97.03684 | 35641 ft | 415 kts | 252° |
| 2026-04-23 15:16 | 39.52532 | -97.10905 | 35637 ft | 415 kts | 252° |
| 2026-04-23 15:16 | 39.51015 | -97.18112 | 35635 ft | 415 kts | 252° |
| 2026-04-23 15:17 | 39.49495 | -97.25311 | 35636 ft | 414 kts | 252° |
| 2026-04-23 15:17 | 39.47971 | -97.32502 | 35641 ft | 414 kts | 252° |
| 2026-04-23 15:18 | 39.46452 | -97.39644 | 35644 ft | 414 kts | 252° |
| 2026-04-23 15:18 | 39.44920 | -97.46828 | 35646 ft | 414 kts | 252° |
| 2026-04-23 15:19 | 39.43384 | -97.54004 | 35649 ft | 414 kts | 252° |
| 2026-04-23 15:19 | 39.41844 | -97.61178 | 35655 ft | 414 kts | 252° |
| 2026-04-23 15:20 | 39.40549 | -97.67186 | 35649 ft | 414 kts | 252° |
| 2026-04-23 15:20 | 39.38752 | -97.75504 | 35644 ft | 414 kts | 252° |
| 2026-04-23 15:21 | 39.37200 | -97.82662 | 35638 ft | 413 kts | 252° |
| 2026-04-23 15:21 | 39.35646 | -97.89806 | 35626 ft | 413 kts | 252° |
| 2026-04-23 15:22 | 39.34089 | -97.96938 | 35632 ft | 412 kts | 252° |
| 2026-04-23 15:22 | 39.32531 | -98.04053 | 35617 ft | 411 kts | 252° |
| 2026-04-23 15:23 | 39.30971 | -98.11154 | 35623 ft | 410 kts | 252° |
| 2026-04-23 15:23 | 39.29411 | -98.18234 | 35615 ft | 409 kts | 252° |
| 2026-04-23 15:24 | 39.27850 | -98.25291 | 35614 ft | 408 kts | 252° |
| 2026-04-23 15:24 | 39.26290 | -98.32325 | 35620 ft | 407 kts | 252° |
| 2026-04-23 15:25 | 39.24730 | -98.39338 | 35617 ft | 406 kts | 252° |
| 2026-04-23 15:25 | 39.23171 | -98.46322 | 35621 ft | 405 kts | 252° |
| 2026-04-23 15:26 | 39.21611 | -98.53291 | 35616 ft | 404 kts | 252° |
| 2026-04-23 15:26 | 39.20050 | -98.60241 | 35615 ft | 403 kts | 252° |
| 2026-04-23 15:27 | 39.18489 | -98.67171 | 35626 ft | 402 kts | 252° |
| 2026-04-23 15:27 | 39.16925 | -98.74090 | 35624 ft | 402 kts | 252° |
| 2026-04-23 15:28 | 39.15362 | -98.80989 | 35631 ft | 401 kts | 252° |
| 2026-04-23 15:28 | 39.13796 | -98.87875 | 35635 ft | 400 kts | 252° |
| 2026-04-23 15:29 | 39.12229 | -98.94747 | 35635 ft | 400 kts | 252° |
| 2026-04-23 15:29 | 39.10660 | -99.01608 | 35636 ft | 399 kts | 252° |
| 2026-04-23 15:30 | 39.09087 | -99.08462 | 35643 ft | 399 kts | 252° |
| 2026-04-23 15:30 | 39.07512 | -99.15307 | 35649 ft | 399 kts | 251° |
| 2026-04-23 15:31 | 39.05936 | -99.22138 | 35657 ft | 398 kts | 251° |
| 2026-04-23 15:31 | 39.04356 | -99.28961 | 35658 ft | 398 kts | 251° |
| 2026-04-23 15:32 | 39.02784 | -99.35733 | 35660 ft | 397 kts | 251° |
| 2026-04-23 15:32 | 39.01189 | -99.42583 | 35658 ft | 397 kts | 251° |
| 2026-04-23 15:33 | 38.99601 | -99.49383 | 35653 ft | 397 kts | 251° |
| 2026-04-23 15:33 | 38.98008 | -99.56182 | 35651 ft | 397 kts | 251° |
| 2026-04-23 15:34 | 38.96681 | -99.61832 | 35648 ft | 397 kts | 251° |
| 2026-04-23 15:34 | 38.95081 | -99.68630 | 35643 ft | 397 kts | 251° |
| 2026-04-23 15:35 | 38.93477 | -99.75422 | 35645 ft | 397 kts | 251° |
| 2026-04-23 15:35 | 38.91869 | -99.82209 | 35646 ft | 397 kts | 251° |
| 2026-04-23 15:36 | 38.90258 | -99.88990 | 35654 ft | 397 kts | 251° |
| 2026-04-23 15:36 | 38.88644 | -99.95768 | 35652 ft | 397 kts | 251° |
| 2026-04-23 15:37 | 38.87024 | -100.02545 | 35658 ft | 397 kts | 251° |
| 2026-04-23 15:37 | 38.85403 | -100.09311 | 35659 ft | 397 kts | 251° |
| 2026-04-23 15:38 | 38.83779 | -100.16072 | 35657 ft | 396 kts | 251° |
| 2026-04-23 15:38 | 38.82152 | -100.22824 | 35659 ft | 396 kts | 251° |
| 2026-04-23 15:39 | 38.80523 | -100.29566 | 35667 ft | 395 kts | 251° |
| 2026-04-23 15:39 | 38.78894 | -100.36289 | 35663 ft | 395 kts | 251° |
| 2026-04-23 15:40 | 38.77262 | -100.43001 | 35670 ft | 394 kts | 251° |
| 2026-04-23 15:40 | 38.75630 | -100.49700 | 35667 ft | 394 kts | 251° |
| 2026-04-23 15:41 | 38.73995 | -100.56389 | 35674 ft | 393 kts | 251° |
| 2026-04-23 15:41 | 38.72359 | -100.63066 | 35689 ft | 392 kts | 251° |
| 2026-04-23 15:42 | 38.70733 | -100.69683 | 35708 ft | 392 kts | 251° |
| 2026-04-23 15:42 | 38.69085 | -100.76372 | 35725 ft | 391 kts | 251° |
| 2026-04-23 15:43 | 38.67444 | -100.83012 | 35745 ft | 391 kts | 251° |
| 2026-04-23 15:43 | 38.65813 | -100.89593 | 35749 ft | 390 kts | 251° |
| 2026-04-23 15:44 | 38.64170 | -100.96208 | 35742 ft | 390 kts | 251° |
| 2026-04-23 15:44 | 38.62524 | -101.02815 | 35751 ft | 390 kts | 251° |
| 2026-04-23 15:45 | 38.60875 | -101.09416 | 35743 ft | 389 kts | 251° |
| 2026-04-23 15:45 | 38.59217 | -101.16032 | 35728 ft | 390 kts | 251° |
| 2026-04-23 15:46 | 38.57559 | -101.22636 | 35716 ft | 390 kts | 251° |
| 2026-04-23 15:46 | 38.55904 | -101.29207 | 35704 ft | 390 kts | 251° |
| 2026-04-23 15:47 | 38.54232 | -101.35827 | 35702 ft | 391 kts | 251° |
| 2026-04-23 15:47 | 38.52566 | -101.42407 | 35695 ft | 391 kts | 251° |
| 2026-04-23 15:48 | 38.50887 | -101.49022 | 35691 ft | 391 kts | 251° |
| 2026-04-23 15:48 | 38.49211 | -101.55607 | 35705 ft | 391 kts | 251° |
| 2026-04-23 15:49 | 38.47522 | -101.62221 | 35707 ft | 391 kts | 251° |
| 2026-04-23 15:49 | 38.45828 | -101.68841 | 35696 ft | 391 kts | 251° |
| 2026-04-23 15:50 | 38.44136 | -101.75435 | 35711 ft | 390 kts | 251° |
| 2026-04-23 15:50 | 38.42455 | -101.81971 | 35714 ft | 390 kts | 251° |
| 2026-04-23 15:51 | 38.40757 | -101.88552 | 35714 ft | 389 kts | 251° |
| 2026-04-23 15:51 | 38.39064 | -101.95100 | 35706 ft | 388 kts | 251° |
| 2026-04-23 15:52 | 38.37382 | -102.01585 | 35715 ft | 387 kts | 251° |
| 2026-04-23 15:52 | 38.35690 | -102.08095 | 35720 ft | 386 kts | 251° |
| 2026-04-23 15:53 | 38.33997 | -102.14589 | 35710 ft | 385 kts | 251° |
| 2026-04-23 15:53 | 38.32315 | -102.21025 | 35714 ft | 384 kts | 251° |
| 2026-04-23 15:54 | 38.30624 | -102.27482 | 35718 ft | 383 kts | 251° |
| 2026-04-23 15:54 | 38.28933 | -102.33921 | 35724 ft | 382 kts | 252° |
| 2026-04-23 15:55 | 38.27254 | -102.40296 | 35742 ft | 382 kts | 252° |
| 2026-04-23 15:55 | 38.25560 | -102.46715 | 35766 ft | 380 kts | 252° |
| 2026-04-23 15:56 | 38.23873 | -102.53092 | 35785 ft | 379 kts | 252° |
| 2026-04-23 15:56 | 38.22199 | -102.59403 | 35810 ft | 378 kts | 252° |
| 2026-04-23 15:57 | 38.20512 | -102.65750 | 35817 ft | 378 kts | 252° |
| 2026-04-23 15:57 | 38.18662 | -102.72013 | 35830 ft | 378 kts | 248° |
| 2026-04-23 15:58 | 38.16585 | -102.78113 | 35827 ft | 378 kts | 248° |
| 2026-04-23 15:58 | 38.14477 | -102.84251 | 35814 ft | 378 kts | 248° |
| 2026-04-23 15:59 | 38.12392 | -102.90346 | 35805 ft | 378 kts | 248° |
| 2026-04-23 15:59 | 38.10294 | -102.96488 | 35781 ft | 378 kts | 248° |
| 2026-04-23 16:00 | 38.08193 | -103.02638 | 35760 ft | 379 kts | 248° |
| 2026-04-23 16:00 | 38.06108 | -103.08731 | 35735 ft | 379 kts | 248° |
| 2026-04-23 16:01 | 38.04001 | -103.14876 | 35752 ft | 379 kts | 248° |
| 2026-04-23 16:01 | 38.01887 | -103.21026 | 35778 ft | 379 kts | 248° |
| 2026-04-23 16:02 | 37.99784 | -103.27134 | 35801 ft | 379 kts | 248° |
| 2026-04-23 16:02 | 37.97668 | -103.33268 | 35819 ft | 379 kts | 248° |
| 2026-04-23 16:03 | 37.95547 | -103.39401 | 35837 ft | 379 kts | 248° |
| 2026-04-23 16:03 | 37.93424 | -103.45526 | 35843 ft | 379 kts | 248° |
| 2026-04-23 16:04 | 37.91314 | -103.51605 | 35833 ft | 379 kts | 248° |
| 2026-04-23 16:04 | 37.89186 | -103.57719 | 35818 ft | 378 kts | 248° |
| 2026-04-23 16:05 | 37.87418 | -103.62792 | 35787 ft | 378 kts | 247° |
| 2026-04-23 16:05 | 37.84950 | -103.69859 | 35765 ft | 377 kts | 248° |
| 2026-04-23 16:06 | 37.82825 | -103.75927 | 35728 ft | 377 kts | 248° |
| 2026-04-23 16:06 | 37.80710 | -103.81957 | 35691 ft | 377 kts | 248° |
| 2026-04-23 16:07 | 37.78578 | -103.88022 | 35674 ft | 377 kts | 248° |
| 2026-04-23 16:07 | 37.76453 | -103.94056 | 35687 ft | 377 kts | 248° |
| 2026-04-23 16:08 | 37.74311 | -104.00125 | 35678 ft | 377 kts | 248° |
| 2026-04-23 16:08 | 37.72162 | -104.06201 | 35679 ft | 378 kts | 248° |
| 2026-04-23 16:09 | 37.70026 | -104.12231 | 35671 ft | 378 kts | 248° |
| 2026-04-23 16:09 | 37.67866 | -104.18314 | 35686 ft | 379 kts | 248° |
| 2026-04-23 16:10 | 37.65701 | -104.24399 | 35677 ft | 379 kts | 248° |
| 2026-04-23 16:10 | 37.63547 | -104.30440 | 35678 ft | 379 kts | 248° |
| 2026-04-23 16:11 | 37.61373 | -104.36526 | 35679 ft | 379 kts | 248° |
| 2026-04-23 16:11 | 37.59200 | -104.42595 | 35694 ft | 380 kts | 248° |
| 2026-04-23 16:12 | 37.57034 | -104.48634 | 35695 ft | 380 kts | 248° |
| 2026-04-23 16:12 | 37.54851 | -104.54707 | 35702 ft | 380 kts | 248° |
| 2026-04-23 16:13 | 37.52664 | -104.60779 | 35691 ft | 380 kts | 248° |
| 2026-04-23 16:13 | 37.49391 | -104.69845 | 35690 ft | 380 kts | 248° |
| 2026-04-23 16:14 | 37.47190 | -104.75927 | 35701 ft | 381 kts | 248° |
| 2026-04-23 16:14 | 37.44998 | -104.81972 | 35702 ft | 381 kts | 248° |
| 2026-04-23 16:15 | 37.42786 | -104.88060 | 35712 ft | 382 kts | 248° |
| 2026-04-23 16:15 | 37.40573 | -104.94136 | 35722 ft | 382 kts | 248° |
| 2026-04-23 16:16 | 37.38351 | -105.00227 | 35746 ft | 384 kts | 248° |
| 2026-04-23 16:16 | 37.36123 | -105.06323 | 35751 ft | 387 kts | 248° |
| 2026-04-23 16:17 | 37.33860 | -105.12503 | 35757 ft | 390 kts | 247° |
| 2026-04-23 16:17 | 37.31594 | -105.18674 | 35777 ft | 392 kts | 247° |
| 2026-04-23 16:18 | 37.29685 | -105.23867 | 35771 ft | 394 kts | 247° |
| 2026-04-23 16:18 | 37.27002 | -105.31146 | 35781 ft | 395 kts | 247° |
| 2026-04-23 16:19 | 37.25062 | -105.36399 | 35779 ft | 396 kts | 247° |
| 2026-04-23 16:19 | 37.22755 | -105.42637 | 35793 ft | 396 kts | 247° |
| 2026-04-23 16:20 | 37.20432 | -105.48904 | 35784 ft | 395 kts | 247° |
| 2026-04-23 16:20 | 37.18124 | -105.55115 | 35791 ft | 394 kts | 248° |
| 2026-04-23 16:21 | 37.15805 | -105.61348 | 35797 ft | 393 kts | 248° |
| 2026-04-23 16:21 | 37.13489 | -105.67557 | 35801 ft | 392 kts | 248° |
| 2026-04-23 16:22 | 37.11168 | -105.73769 | 35797 ft | 392 kts | 248° |
| 2026-04-23 16:22 | 37.08867 | -105.79913 | 35783 ft | 391 kts | 248° |
| 2026-04-23 16:23 | 37.06553 | -105.86081 | 35785 ft | 390 kts | 248° |
| 2026-04-23 16:23 | 37.04241 | -105.92232 | 35793 ft | 390 kts | 248° |
| 2026-04-23 16:24 | 37.01940 | -105.98341 | 35796 ft | 390 kts | 248° |
| 2026-04-23 16:24 | 36.99617 | -106.04497 | 35809 ft | 390 kts | 248° |
| 2026-04-23 16:25 | 36.97306 | -106.10609 | 35815 ft | 391 kts | 248° |
| 2026-04-23 16:25 | 36.94970 | -106.16774 | 35828 ft | 393 kts | 249° |
| 2026-04-23 16:26 | 36.94259 | -106.18650 | 35820 ft | 393 kts | 249° |
| 2026-04-23 16:26 | 36.92936 | -106.22127 | 35841 ft | 394 kts | 248° |
| 2026-04-23 16:27 | 36.90572 | -106.28346 | 35849 ft | 396 kts | 248° |
| 2026-04-23 16:27 | 36.88214 | -106.34537 | 35846 ft | 397 kts | 248° |
| 2026-04-23 16:28 | 36.85832 | -106.40776 | 35851 ft | 398 kts | 248° |
| 2026-04-23 16:28 | 36.83442 | -106.47023 | 35855 ft | 398 kts | 248° |
| 2026-04-23 16:29 | 36.81050 | -106.53263 | 35850 ft | 398 kts | 248° |
| 2026-04-23 16:29 | 36.78675 | -106.59444 | 35852 ft | 396 kts | 248° |
| 2026-04-23 16:30 | 36.76292 | -106.65634 | 35846 ft | 394 kts | 248° |
| 2026-04-23 16:30 | 36.73923 | -106.71778 | 35850 ft | 391 kts | 248° |
| 2026-04-23 16:31 | 36.71578 | -106.77848 | 35854 ft | 390 kts | 248° |
| 2026-04-23 16:31 | 36.69218 | -106.83942 | 35857 ft | 388 kts | 249° |
| 2026-04-23 16:32 | 36.66881 | -106.89971 | 35854 ft | 387 kts | 249° |
| 2026-04-23 16:32 | 36.64535 | -106.96009 | 35868 ft | 387 kts | 249° |
| 2026-04-23 16:33 | 36.62182 | -107.02054 | 35855 ft | 387 kts | 249° |
| 2026-04-23 16:33 | 36.59844 | -107.08049 | 35865 ft | 387 kts | 248° |
| 2026-04-23 16:34 | 36.57483 | -107.14092 | 35866 ft | 388 kts | 249° |
| 2026-04-23 16:34 | 36.55117 | -107.20133 | 35877 ft | 388 kts | 249° |
| 2026-04-23 16:35 | 36.52743 | -107.26184 | 35875 ft | 389 kts | 248° |
| 2026-04-23 16:35 | 36.50375 | -107.32210 | 35872 ft | 389 kts | 248° |
| 2026-04-23 16:36 | 36.47990 | -107.38266 | 35878 ft | 389 kts | 248° |
| 2026-04-23 16:36 | 36.45617 | -107.44281 | 35889 ft | 389 kts | 248° |
| 2026-04-23 16:37 | 36.43242 | -107.50288 | 35885 ft | 388 kts | 248° |
| 2026-04-23 16:37 | 36.40860 | -107.56302 | 35892 ft | 388 kts | 248° |
| 2026-04-23 16:38 | 36.38475 | -107.62314 | 35887 ft | 387 kts | 248° |
| 2026-04-23 16:38 | 36.36095 | -107.68301 | 35901 ft | 385 kts | 248° |
| 2026-04-23 16:39 | 36.33732 | -107.74236 | 35906 ft | 385 kts | 248° |
| 2026-04-23 16:39 | 36.31355 | -107.80193 | 35909 ft | 384 kts | 248° |
| 2026-04-23 16:40 | 36.28981 | -107.86132 | 35905 ft | 384 kts | 248° |
| 2026-04-23 16:40 | 36.26614 | -107.92042 | 35905 ft | 383 kts | 248° |
| 2026-04-23 16:41 | 36.24237 | -107.97970 | 35898 ft | 383 kts | 248° |
| 2026-04-23 16:41 | 36.21876 | -108.03844 | 35900 ft | 383 kts | 248° |
| 2026-04-23 16:42 | 36.19478 | -108.09798 | 35889 ft | 384 kts | 248° |
| 2026-04-23 16:42 | 36.17107 | -108.15676 | 35886 ft | 384 kts | 248° |
| 2026-04-23 16:43 | 36.14713 | -108.21601 | 35879 ft | 384 kts | 248° |
| 2026-04-23 16:43 | 36.12333 | -108.27480 | 35869 ft | 384 kts | 248° |
| 2026-04-23 16:44 | 36.09931 | -108.33401 | 35866 ft | 384 kts | 248° |
| 2026-04-23 16:44 | 36.07527 | -108.39317 | 35864 ft | 384 kts | 248° |
| 2026-04-23 16:45 | 36.05133 | -108.45196 | 35853 ft | 384 kts | 248° |
| 2026-04-23 16:45 | 36.02737 | -108.51071 | 35856 ft | 384 kts | 248° |
| 2026-04-23 16:46 | 36.00323 | -108.56980 | 35855 ft | 384 kts | 248° |
| 2026-04-23 16:46 | 35.97904 | -108.62890 | 35852 ft | 384 kts | 248° |
| 2026-04-23 16:47 | 35.95504 | -108.68743 | 35858 ft | 384 kts | 248° |
| 2026-04-23 16:47 | 35.93078 | -108.74650 | 35850 ft | 385 kts | 248° |
| 2026-04-23 16:48 | 35.90666 | -108.80511 | 35891 ft | 385 kts | 248° |
| 2026-04-23 16:48 | 35.88236 | -108.86407 | 35932 ft | 386 kts | 248° |
| 2026-04-23 16:49 | 35.85791 | -108.92327 | 35962 ft | 387 kts | 248° |
| 2026-04-23 16:49 | 35.83356 | -108.98211 | 36008 ft | 387 kts | 248° |
| 2026-04-23 16:50 | 35.80900 | -109.04138 | 36036 ft | 388 kts | 248° |
| 2026-04-23 16:50 | 35.78439 | -109.10063 | 36061 ft | 387 kts | 248° |
| 2026-04-23 16:51 | 35.75995 | -109.15937 | 36055 ft | 387 kts | 248° |
| 2026-04-23 16:51 | 35.73534 | -109.21843 | 36038 ft | 387 kts | 248° |
| 2026-04-23 16:52 | 35.71068 | -109.27750 | 36012 ft | 387 kts | 248° |
| 2026-04-23 16:52 | 35.68615 | -109.33616 | 35992 ft | 387 kts | 248° |
| 2026-04-23 16:53 | 35.66141 | -109.39521 | 35953 ft | 387 kts | 247° |
| 2026-04-23 16:53 | 35.63665 | -109.45420 | 35923 ft | 388 kts | 247° |
| 2026-04-23 16:54 | 35.61197 | -109.51290 | 35892 ft | 387 kts | 247° |
| 2026-04-23 16:54 | 35.58715 | -109.57183 | 35897 ft | 387 kts | 247° |
| 2026-04-23 16:55 | 35.56245 | -109.63037 | 35903 ft | 387 kts | 247° |
| 2026-04-23 16:55 | 35.53759 | -109.68918 | 35904 ft | 387 kts | 247° |
| 2026-04-23 16:56 | 35.51267 | -109.74803 | 35903 ft | 388 kts | 247° |
| 2026-04-23 16:56 | 35.48790 | -109.80641 | 35910 ft | 387 kts | 247° |
| 2026-04-23 16:57 | 35.46289 | -109.86528 | 35913 ft | 388 kts | 247° |
| 2026-04-23 16:57 | 35.43801 | -109.92373 | 35919 ft | 388 kts | 247° |
| 2026-04-23 16:58 | 35.41295 | -109.98251 | 35918 ft | 388 kts | 246° |
| 2026-04-23 16:58 | 35.38802 | -110.04086 | 35928 ft | 388 kts | 246° |
| 2026-04-23 16:59 | 35.36285 | -110.09967 | 35926 ft | 389 kts | 246° |
| 2026-04-23 16:59 | 35.33768 | -110.15838 | 35942 ft | 389 kts | 246° |
| 2026-04-23 17:00 | 35.28785 | -110.27433 | 35942 ft | 389 kts | 246° |
| 2026-04-23 17:01 | 35.26261 | -110.33290 | 35943 ft | 389 kts | 246° |
| 2026-04-23 17:01 | 35.23753 | -110.39101 | 35955 ft | 389 kts | 246° |
| 2026-04-23 17:02 | 35.22129 | -110.42858 | 35968 ft | 389 kts | 246° |
| 2026-04-23 17:02 | 35.19946 | -110.47903 | 36001 ft | 389 kts | 246° |
| 2026-04-23 17:03 | 35.17409 | -110.53755 | 36028 ft | 389 kts | 246° |
| 2026-04-23 17:03 | 35.14867 | -110.59610 | 36053 ft | 390 kts | 246° |
| 2026-04-23 17:04 | 35.12319 | -110.65468 | 36074 ft | 390 kts | 245° |
| 2026-04-23 17:04 | 35.09768 | -110.71326 | 36088 ft | 391 kts | 245° |
| 2026-04-23 17:05 | 35.07226 | -110.77153 | 36078 ft | 391 kts | 246° |
| 2026-04-23 17:05 | 35.05356 | -110.83327 | 36091 ft | 387 kts | 257° |
| 2026-04-23 17:06 | 35.04070 | -110.89711 | 36069 ft | 388 kts | 257° |
| 2026-04-23 17:06 | 35.02765 | -110.96114 | 36032 ft | 388 kts | 257° |
| 2026-04-23 17:07 | 35.01446 | -111.02514 | 36013 ft | 389 kts | 257° |
| 2026-04-23 17:07 | 35.00126 | -111.08875 | 35974 ft | 389 kts | 257° |
| 2026-04-23 17:08 | 34.99017 | -111.14202 | 35954 ft | 389 kts | 257° |
| 2026-04-23 17:08 | 34.97680 | -111.20607 | 35942 ft | 389 kts | 257° |
| 2026-04-23 17:09 | 34.96342 | -111.26999 | 35946 ft | 389 kts | 257° |
| 2026-04-23 17:09 | 34.95000 | -111.33389 | 35958 ft | 388 kts | 257° |
| 2026-04-23 17:10 | 34.93658 | -111.39763 | 35998 ft | 388 kts | 257° |
| 2026-04-23 17:10 | 34.92319 | -111.46108 | 36008 ft | 388 kts | 257° |
| 2026-04-23 17:11 | 34.90969 | -111.52487 | 36028 ft | 388 kts | 257° |
| 2026-04-23 17:11 | 34.89616 | -111.58861 | 36052 ft | 388 kts | 257° |
| 2026-04-23 17:12 | 34.88259 | -111.65236 | 36087 ft | 388 kts | 257° |
| 2026-04-23 17:12 | 34.86912 | -111.71543 | 36105 ft | 387 kts | 257° |
| 2026-04-23 17:13 | 34.85555 | -111.77881 | 36102 ft | 386 kts | 257° |
| 2026-04-23 17:13 | 34.84199 | -111.84199 | 36100 ft | 384 kts | 257° |
| 2026-04-23 17:14 | 34.82855 | -111.90444 | 36097 ft | 383 kts | 257° |
| 2026-04-23 17:14 | 34.81504 | -111.96704 | 36066 ft | 382 kts | 257° |
| 2026-04-23 17:15 | 34.80153 | -112.02948 | 36041 ft | 380 kts | 257° |
| 2026-04-23 17:15 | 34.78804 | -112.09167 | 35997 ft | 379 kts | 257° |
| 2026-04-23 17:16 | 34.77456 | -112.15361 | 36010 ft | 377 kts | 257° |
| 2026-04-23 17:16 | 34.76111 | -112.21529 | 36040 ft | 377 kts | 257° |
| 2026-04-23 17:17 | 34.74770 | -112.27663 | 36070 ft | 377 kts | 257° |
| 2026-04-23 17:17 | 34.73417 | -112.33835 | 36100 ft | 377 kts | 257° |
| 2026-04-23 17:18 | 34.71383 | -112.43089 | 36113 ft | 377 kts | 257° |
| 2026-04-23 17:19 | 34.70014 | -112.49247 | 36112 ft | 377 kts | 256° |
| 2026-04-23 17:19 | 34.68454 | -112.55298 | 36104 ft | 378 kts | 254° |
| 2026-04-23 17:20 | 34.66816 | -112.61380 | 36068 ft | 379 kts | 254° |
| 2026-04-23 17:21 | 34.63571 | -112.73558 | 36007 ft | 378 kts | 254° |
| 2026-04-23 17:21 | 34.61164 | -112.82638 | 35953 ft | 378 kts | 254° |
| 2026-04-23 17:22 | 34.58739 | -112.91764 | 35933 ft | 378 kts | 254° |
| 2026-04-23 17:23 | 34.56322 | -113.00831 | 35947 ft | 377 kts | 254° |
| 2026-04-23 17:24 | 34.53889 | -113.09923 | 35937 ft | 377 kts | 254° |
| 2026-04-23 17:24 | 34.51451 | -113.19004 | 35933 ft | 377 kts | 254° |
| 2026-04-23 17:25 | 34.49010 | -113.28070 | 35942 ft | 376 kts | 254° |
| 2026-04-23 17:26 | 34.45757 | -113.40101 | 35927 ft | 376 kts | 254° |
| 2026-04-23 17:27 | 34.43303 | -113.49140 | 35934 ft | 376 kts | 254° |
| 2026-04-23 17:27 | 34.41663 | -113.55168 | 35942 ft | 376 kts | 253° |
| 2026-04-23 17:28 | 34.40029 | -113.61159 | 35932 ft | 377 kts | 253° |
| 2026-04-23 17:28 | 34.38379 | -113.67194 | 35942 ft | 377 kts | 253° |
| 2026-04-23 17:29 | 34.36728 | -113.73221 | 35945 ft | 377 kts | 253° |
| 2026-04-23 17:30 | 34.34522 | -113.81252 | 35926 ft | 378 kts | 253° |
| 2026-04-23 17:30 | 34.32567 | -113.88356 | 35209 ft | 379 kts | 253° |
| 2026-04-23 17:30 | 34.31741 | -113.91349 | 34922 ft | 379 kts | 253° |
| 2026-04-23 17:31 | 34.30902 | -113.94387 | 34640 ft | 381 kts | 253° |
| 2026-04-23 17:31 | 34.30060 | -113.97435 | 34363 ft | 383 kts | 253° |
| 2026-04-23 17:31 | 34.29214 | -114.00492 | 34086 ft | 384 kts | 253° |
| 2026-04-23 17:31 | 34.28363 | -114.03565 | 33768 ft | 386 kts | 253° |
| 2026-04-23 17:32 | 34.27508 | -114.06648 | 33461 ft | 387 kts | 253° |
| 2026-04-23 17:32 | 34.26650 | -114.09740 | 33138 ft | 388 kts | 253° |
| 2026-04-23 17:32 | 34.25785 | -114.12845 | 32829 ft | 390 kts | 252° |
| 2026-04-23 17:32 | 34.24916 | -114.15955 | 32511 ft | 391 kts | 252° |
| 2026-04-23 17:33 | 34.24054 | -114.19039 | 32215 ft | 392 kts | 253° |
| 2026-04-23 17:33 | 34.23179 | -114.22164 | 32002 ft | 393 kts | 252° |
| 2026-04-23 17:33 | 34.21413 | -114.28469 | 31956 ft | 396 kts | 252° |
| 2026-04-23 17:34 | 34.19647 | -114.34761 | 31946 ft | 394 kts | 252° |
| 2026-04-23 17:35 | 34.17001 | -114.44165 | 31958 ft | 394 kts | 252° |
| 2026-04-23 17:35 | 34.14349 | -114.53557 | 31963 ft | 393 kts | 252° |
| 2026-04-23 17:36 | 34.12591 | -114.59772 | 31971 ft | 393 kts | 252° |
| 2026-04-23 17:36 | 34.10816 | -114.66029 | 31973 ft | 394 kts | 252° |
| 2026-04-23 17:37 | 34.08630 | -114.72096 | 31983 ft | 396 kts | 244° |
| 2026-04-23 17:38 | 34.04642 | -114.80854 | 31977 ft | 397 kts | 244° |
| 2026-04-23 17:38 | 34.02018 | -114.86722 | 31984 ft | 397 kts | 244° |
| 2026-04-23 17:39 | 33.99430 | -114.92566 | 31993 ft | 397 kts | 244° |
| 2026-04-23 17:39 | 33.96821 | -114.98450 | 31997 ft | 398 kts | 244° |
| 2026-04-23 17:40 | 33.94207 | -115.04312 | 32005 ft | 394 kts | 244° |
| 2026-04-23 17:40 | 33.91630 | -115.10059 | 32007 ft | 389 kts | 244° |
| 2026-04-23 17:41 | 33.89053 | -115.15802 | 32010 ft | 391 kts | 244° |
| 2026-04-23 17:41 | 33.86533 | -115.21405 | 31991 ft | 370 kts | 244° |
| 2026-04-23 17:41 | 33.85320 | -115.24099 | 32003 ft | 364 kts | 244° |
| 2026-04-23 17:42 | 33.81722 | -115.32099 | 32024 ft | 362 kts | 244° |
| 2026-04-23 17:43 | 33.79319 | -115.37427 | 32013 ft | 362 kts | 244° |
| 2026-04-23 17:43 | 33.76915 | -115.42749 | 32027 ft | 362 kts | 244° |
| 2026-04-23 17:44 | 33.74504 | -115.48081 | 32019 ft | 363 kts | 244° |
| 2026-04-23 17:44 | 33.70880 | -115.56144 | 31659 ft | 377 kts | 244° |
| 2026-04-23 17:45 | 33.69653 | -115.58938 | 31335 ft | 377 kts | 244° |
| 2026-04-23 17:45 | 33.67232 | -115.64448 | 30427 ft | 369 kts | 244° |
| 2026-04-23 17:45 | 33.66039 | -115.67156 | 29956 ft | 366 kts | 244° |
| 2026-04-23 17:46 | 33.63675 | -115.72510 | 28956 ft | 358 kts | 244° |
| 2026-04-23 17:46 | 33.62524 | -115.75112 | 28471 ft | 355 kts | 244° |
| 2026-04-23 17:46 | 33.61291 | -115.77663 | 28010 ft | 353 kts | 239° |
| 2026-04-23 17:47 | 33.59910 | -115.80089 | 27568 ft | 351 kts | 238° |
| 2026-04-23 17:47 | 33.58499 | -115.82462 | 27110 ft | 349 kts | 238° |
| 2026-04-23 17:47 | 33.55706 | -115.87188 | 26221 ft | 345 kts | 238° |
| 2026-04-23 17:48 | 33.54336 | -115.89547 | 25773 ft | 344 kts | 239° |
| 2026-04-23 17:48 | 33.52975 | -115.91897 | 25340 ft | 343 kts | 239° |
| 2026-04-23 17:48 | 33.51616 | -115.94246 | 24908 ft | 342 kts | 239° |
| 2026-04-23 17:48 | 33.50261 | -115.96588 | 24485 ft | 341 kts | 239° |
| 2026-04-23 17:49 | 33.48905 | -115.98927 | 24044 ft | 341 kts | 239° |
| 2026-04-23 17:49 | 33.47548 | -116.01267 | 23583 ft | 342 kts | 239° |
| 2026-04-23 17:49 | 33.46189 | -116.03611 | 23073 ft | 341 kts | 239° |
| 2026-04-23 17:49 | 33.44854 | -116.05912 | 22620 ft | 340 kts | 239° |
| 2026-04-23 17:50 | 33.43504 | -116.08235 | 22169 ft | 339 kts | 239° |
| 2026-04-23 17:50 | 33.40824 | -116.12848 | 21295 ft | 335 kts | 239° |
| 2026-04-23 17:50 | 33.39493 | -116.15137 | 20866 ft | 334 kts | 239° |
| 2026-04-23 17:51 | 33.38167 | -116.17417 | 20470 ft | 333 kts | 239° |
| 2026-04-23 17:51 | 33.36844 | -116.19690 | 20015 ft | 333 kts | 239° |
| 2026-04-23 17:51 | 33.34136 | -116.24164 | 19159 ft | 338 kts | 231° |
| 2026-04-23 17:52 | 33.32278 | -116.25935 | 18781 ft | 346 kts | 216° |
| 2026-04-23 17:52 | 33.28646 | -116.28144 | 18091 ft | 351 kts | 212° |
| 2026-04-23 17:52 | 33.26460 | -116.29379 | 17666 ft | 352 kts | 211° |
| 2026-04-23 17:53 | 33.22045 | -116.31891 | 16770 ft | 349 kts | 212° |
| 2026-04-23 17:53 | 33.19867 | -116.33147 | 16372 ft | 346 kts | 212° |
| 2026-04-23 17:53 | 33.17707 | -116.34402 | 15979 ft | 343 kts | 212° |
| 2026-04-23 17:54 | 33.15570 | -116.35648 | 15601 ft | 341 kts | 212° |
| 2026-04-23 17:54 | 33.13445 | -116.36888 | 15213 ft | 338 kts | 212° |
| 2026-04-23 17:54 | 33.09249 | -116.39341 | 14488 ft | 333 kts | 211° |
| 2026-04-23 17:55 | 33.05129 | -116.41749 | 13747 ft | 331 kts | 211° |
| 2026-04-23 17:55 | 33.03059 | -116.42956 | 13321 ft | 330 kts | 211° |
| 2026-04-23 17:55 | 33.01011 | -116.44155 | 12952 ft | 327 kts | 212° |
| 2026-04-23 17:56 | 32.99154 | -116.45655 | 12573 ft | 318 kts | 224° |
| 2026-04-23 17:56 | 32.95850 | -116.49066 | 11833 ft | 310 kts | 225° |
| 2026-04-23 17:56 | 32.94240 | -116.50737 | 11546 ft | 306 kts | 225° |
| 2026-04-23 17:57 | 32.92647 | -116.52375 | 11206 ft | 306 kts | 224° |
| 2026-04-23 17:57 | 32.91035 | -116.54017 | 10864 ft | 305 kts | 224° |
| 2026-04-23 17:57 | 32.87815 | -116.57270 | 10206 ft | 303 kts | 224° |
| 2026-04-23 17:58 | 32.86207 | -116.58889 | 9879 ft | 301 kts | 223° |
| 2026-04-23 17:58 | 32.84640 | -116.60462 | 9891 ft | 288 kts | 224° |
| 2026-04-23 17:58 | 32.83141 | -116.61972 | 9856 ft | 277 kts | 224° |
| 2026-04-23 17:58 | 32.81692 | -116.63432 | 9714 ft | 270 kts | 224° |
| 2026-04-23 17:59 | 32.80273 | -116.64862 | 9414 ft | 270 kts | 223° |
| 2026-04-23 17:59 | 32.78837 | -116.66307 | 9158 ft | 269 kts | 223° |
| 2026-04-23 17:59 | 32.77446 | -116.67779 | 8882 ft | 266 kts | 232° |
| 2026-04-23 17:59 | 32.76462 | -116.69622 | 8612 ft | 263 kts | 244° |
| 2026-04-23 18:00 | 32.75598 | -116.71515 | 8340 ft | 264 kts | 243° |
| 2026-04-23 18:00 | 32.74707 | -116.73425 | 8076 ft | 265 kts | 243° |
| 2026-04-23 18:00 | 32.73802 | -116.75325 | 7790 ft | 264 kts | 242° |
| 2026-04-23 18:00 | 32.72899 | -116.77234 | 7532 ft | 264 kts | 243° |
| 2026-04-23 18:01 | 32.72003 | -116.79137 | 7326 ft | 263 kts | 242° |
| 2026-04-23 18:01 | 32.71111 | -116.81036 | 7121 ft | 262 kts | 242° |
| 2026-04-23 18:01 | 32.70310 | -116.82958 | 6980 ft | 255 kts | 250° |
| 2026-04-23 18:01 | 32.69706 | -116.84907 | 6916 ft | 247 kts | 252° |
| 2026-04-23 18:02 | 32.69141 | -116.86793 | 6830 ft | 239 kts | 251° |
| 2026-04-23 18:02 | 32.68599 | -116.88628 | 6739 ft | 232 kts | 252° |
| 2026-04-23 18:02 | 32.68079 | -116.90424 | 6565 ft | 228 kts | 252° |
| 2026-04-23 18:02 | 32.67560 | -116.92203 | 6309 ft | 228 kts | 252° |
| 2026-04-23 18:03 | 32.67326 | -116.94039 | 5985 ft | 227 kts | 277° |
| 2026-04-23 18:03 | 32.67652 | -116.95907 | 5269 ft | 243 kts | 287° |
| 2026-04-23 18:03 | 32.68146 | -116.97876 | 4546 ft | 254 kts | 289° |
| 2026-04-23 18:03 | 32.68677 | -116.99900 | 3903 ft | 259 kts | 288° |
| 2026-04-23 18:04 | 32.69204 | -117.01942 | 3271 ft | 259 kts | 288° |
| 2026-04-23 18:04 | 32.69700 | -117.03969 | 2823 ft | 252 kts | 288° |
| 2026-04-23 18:04 | 32.70176 | -117.05933 | 2414 ft | 241 kts | 287° |
| 2026-04-23 18:04 | 32.70634 | -117.07774 | 1985 ft | 224 kts | 286° |
| 2026-04-23 18:05 | 32.71050 | -117.09485 | 1612 ft | 208 kts | 286° |
| 2026-04-23 18:05 | 32.71434 | -117.11072 | 1319 ft | 192 kts | 285° |
| 2026-04-23 18:05 | 32.71791 | -117.12543 | 1075 ft | 180 kts | 286° |
| 2026-04-23 18:05 | 32.72114 | -117.13893 | 892 ft | 159 kts | 286° |
| 2026-04-23 18:06 | 32.72412 | -117.15086 | 698 ft | 146 kts | 286° |
| 2026-04-23 18:06 | 32.72694 | -117.16239 | 457 ft | 144 kts | 286° |
| 2026-04-23 18:06 | 32.72972 | -117.17381 | 220 ft | 144 kts | 285° |
| 2026-04-23 18:06 | 32.73242 | -117.18492 | 25 ft | 135 kts | 286° |
| 2026-04-23 18:07 | 32.73458 | -117.19388 | 21 ft | 79 kts | 286° |
| 2026-04-23 18:07 | 32.73535 | -117.19743 | 27 ft | 24 kts | 266° |
| 2026-04-23 18:07 | 32.73492 | -117.19852 | 24 ft | 12 kts | 190° |
| 2026-04-23 18:07 | 32.73451 | -117.19778 | 26 ft | 12 kts | 105° |
| 2026-04-23 18:08 | 32.73436 | -117.19716 | 22 ft | 12 kts | 107° |
| 2026-04-23 18:08 | 32.73408 | -117.19596 | 23 ft | 11 kts | 105° |
| 2026-04-23 18:08 | 32.73386 | -117.19510 | 25 ft | 11 kts | 106° |
| 2026-04-23 18:08 | 32.73363 | -117.19430 | 22 ft | 9 kts | 128° |
| 2026-04-23 18:09 | 32.73301 | -117.19435 | 21 ft | 10 kts | 200° |
| 2026-04-23 18:09 | 32.73247 | -117.19471 | 20 ft | 8 kts | 205° |
| 2026-04-23 18:09 | 32.73208 | -117.19518 | 19 ft | 8 kts | 249° |
| 2026-04-23 18:09 | 32.73225 | -117.19576 | 21 ft | 2 kts | 305° |
| 2026-04-23 18:10 | 32.73226 | -117.19579 | 20 ft | 1 kts | 305° |
| 2026-04-23 18:10 | 32.73234 | -117.19591 | 19 ft | 3 kts | 306° |
| 2026-04-23 18:10 | 32.73238 | -117.19598 | 19 ft | 0 kts | 306° |